Time;durP1;ratioP1;P1;durP2;ratioP2;P2;SDS_P1;SDS_P2;PMS_P1;PMS_P2;Temp;Humidity;BMP_temperature;BMP_pressure;BME280_temperature;BME280_humidity;BME280_pressure;Samples;Min_cycle;Max_cycle;Signal;HPM_P1;HPM_P2
2021/06/01 00:00:05;;;;;;;;;;;10.90;99.90;;;;;;10462440;28;20140;-74
2021/06/01 00:05:08;;;;;;;;;;;10.60;99.90;;;;;;10491684;28;19924;-74
2021/06/01 00:10:10;;;;;;;;;;;10.80;99.90;;;;;;10491754;28;19976;-74
2021/06/01 00:15:12;;;;;;;;;;;10.90;99.90;;;;;;10491550;28;19934;-74
2021/06/01 00:20:14;;;;;;;;;;;10.80;99.90;;;;;;10485254;28;19928;-74
2021/06/01 00:25:15;;;;;;;;;;;10.80;99.90;;;;;;10474468;28;19929;-74
2021/06/01 00:30:17;;;;;;;;;;;10.80;99.90;;;;;;10443031;28;19925;-73
2021/06/01 00:35:19;;;;;;;;;;;10.60;99.90;;;;;;10490695;28;19928;-74
2021/06/01 00:40:21;;;;;;;;;;;10.40;99.90;;;;;;10490575;28;19946;-74
2021/06/01 00:45:25;;;;;;;;;;;10.40;99.90;;;;;;10472454;28;19928;-74
2021/06/01 00:50:27;;;;;;;;;;;10.40;99.90;;;;;;10490457;28;19924;-73
2021/06/01 00:55:29;;;;;;;;;;;10.40;99.90;;;;;;10479006;28;20349;-73
2021/06/01 01:05:37;;;;;;;;;;;10.20;99.90;;;;;;10493311;28;19928;-73
2021/06/01 01:10:40;;;;;;;;;;;9.90;99.90;;;;;;10519683;28;20387;-73
2021/06/01 01:15:42;;;;;;;;;;;10.00;99.90;;;;;;10497664;28;19930;-73
2021/06/01 01:21:03;;;;;;;;;;;10.00;99.90;;;;;;10506283;28;19924;-74
2021/06/01 01:26:23;;;;;;;;;;;10.00;99.90;;;;;;10522798;28;19932;-74
2021/06/01 01:31:30;;;;;;;;;;;9.80;99.90;;;;;;10511259;28;20019;-74
2021/06/01 01:36:33;;;;;;;;;;;9.60;99.90;;;;;;10501502;28;19935;-72
2021/06/01 01:41:35;;;;;;;;;;;9.60;99.90;;;;;;10511794;28;20031;-73
2021/06/01 01:51:48;;;;;;;;;;;9.60;99.90;;;;;;10489702;28;19925;-73
2021/06/01 01:56:56;;;;;;;;;;;9.50;99.90;;;;;;10508245;28;19971;-73
2021/06/01 02:01:58;;;;;;;;;;;9.50;99.90;;;;;;10519137;28;20577;-73
2021/06/01 02:07:00;;;;;;;;;;;9.50;99.90;;;;;;10511122;28;19924;-73
2021/06/01 02:12:02;;;;;;;;;;;9.40;99.90;;;;;;10511679;28;20019;-73
2021/06/01 02:17:04;;;;;;;;;;;9.30;99.90;;;;;;10521194;28;19924;-73
2021/06/01 02:27:18;;;;;;;;;;;9.10;99.90;;;;;;10505517;28;20015;-73
2021/06/01 02:32:20;;;;;;;;;;;9.00;99.90;;;;;;10522973;28;20015;-73
2021/06/01 02:37:22;;;;;;;;;;;9.00;99.90;;;;;;10497101;28;20003;-73
2021/06/01 02:42:24;;;;;;;;;;;9.00;99.90;;;;;;10520355;28;20354;-73
2021/06/01 02:47:26;;;;;;;;;;;8.90;99.90;;;;;;10510087;28;19924;-73
2021/06/01 02:52:27;;;;;;;;;;;8.80;99.90;;;;;;10506333;28;20011;-73
2021/06/01 02:57:29;;;;;;;;;;;8.70;99.90;;;;;;10505230;28;20374;-73
2021/06/01 03:02:31;;;;;;;;;;;8.70;99.90;;;;;;10496136;28;20360;-72
2021/06/01 03:07:36;;;;;;;;;;;8.70;99.90;;;;;;10489891;28;19924;-73
2021/06/01 03:17:41;;;;;;;;;;;8.80;99.90;;;;;;10512900;28;20426;-74
2021/06/01 03:22:43;;;;;;;;;;;8.70;99.90;;;;;;10501917;28;19924;-73
2021/06/01 03:27:47;;;;;;;;;;;8.60;99.90;;;;;;10514055;28;19939;-73
2021/06/01 03:32:49;;;;;;;;;;;8.40;99.90;;;;;;10496496;28;19928;-71
2021/06/01 03:37:52;;;;;;;;;;;8.60;99.90;;;;;;10487101;28;19986;-73
2021/06/01 03:42:54;;;;;;;;;;;8.70;99.90;;;;;;10487088;28;19970;-73
2021/06/01 03:47:56;;;;;;;;;;;8.60;99.90;;;;;;10487095;28;19925;-72
2021/06/01 03:52:58;;;;;;;;;;;8.60;99.90;;;;;;10486846;28;19936;-73
2021/06/01 03:58:00;;;;;;;;;;;8.70;99.90;;;;;;10486841;28;20368;-73
2021/06/01 04:03:02;;;;;;;;;;;8.70;99.90;;;;;;10485853;28;19928;-73
2021/06/01 04:08:06;;;;;;;;;;;8.70;99.90;;;;;;10485838;28;20327;-73
2021/06/01 04:13:07;;;;;;;;;;;8.80;99.90;;;;;;10490518;28;20026;-74
2021/06/01 04:18:09;;;;;;;;;;;10.00;99.90;;;;;;10493206;28;20424;-74
2021/06/01 04:23:11;;;;;;;;;;;13.70;99.90;;;;;;10493363;28;20422;-74
2021/06/01 04:28:13;;;;;;;;;;;16.90;97.80;;;;;;10493489;28;19929;-74
2021/06/01 04:33:14;;;;;;;;;;;18.90;77.90;;;;;;10490964;28;19928;-75
2021/06/01 04:38:16;;;;;;;;;;;20.20;67.20;;;;;;10493316;28;19924;-75
2021/06/01 04:43:20;;;;;;;;;;;21.50;59.40;;;;;;10492733;28;20430;-75
2021/06/01 04:48:22;;;;;;;;;;;23.10;54.40;;;;;;10492687;28;19924;-73
2021/06/01 04:53:24;;;;;;;;;;;24.20;49.80;;;;;;10492353;28;20015;-73
2021/06/01 04:58:25;;;;;;;;;;;24.30;48.90;;;;;;10492626;28;20015;-73
2021/06/01 05:03:27;;;;;;;;;;;24.90;46.90;;;;;;10491830;28;19924;-72
2021/06/01 05:08:29;;;;;;;;;;;25.70;45.10;;;;;;10491608;28;19925;-73
2021/06/01 05:13:31;;;;;;;;;;;26.20;44.20;;;;;;10491513;28;20345;-73
2021/06/01 05:18:32;;;;;;;;;;;26.60;42.50;;;;;;10491890;28;19924;-73
2021/06/01 05:23:38;;;;;;;;;;;26.50;42.20;;;;;;10491845;28;19971;-73
2021/06/01 05:28:40;;;;;;;;;;;26.90;41.40;;;;;;10491424;28;19925;-73
2021/06/01 05:33:47;;;;;;;;;;;23.00;44.40;;;;;;10490103;28;19924;-73
2021/06/01 05:38:49;;;;;;;;;;;19.40;50.40;;;;;;10490404;28;19998;-71
2021/06/01 05:43:51;;;;;;;;;;;17.20;56.50;;;;;;10490201;28;19924;-72
2021/06/01 05:48:53;;;;;;;;;;;15.50;60.50;;;;;;10489741;28;19966;-71
2021/06/01 05:53:55;;;;;;;;;;;14.90;65.40;;;;;;10489784;28;20058;-73
2021/06/01 05:58:56;;;;;;;;;;;14.50;71.40;;;;;;10489464;28;20414;-73
2021/06/01 06:03:58;;;;;;;;;;;14.20;78.10;;;;;;10488466;28;20014;-73
2021/06/01 06:09:00;;;;;;;;;;;14.10;83.40;;;;;;10488708;28;20380;-73
2021/06/01 06:14:02;;;;;;;;;;;14.10;89.40;;;;;;10489082;28;19924;-73
2021/06/01 06:19:03;;;;;;;;;;;14.20;91.30;;;;;;10488603;28;19934;-73
2021/06/01 06:24:05;;;;;;;;;;;14.30;93.50;;;;;;10488236;28;19928;-73
2021/06/01 06:29:07;;;;;;;;;;;14.40;93.40;;;;;;10488520;28;19924;-74
2021/06/01 06:34:09;;;;;;;;;;;14.50;94.20;;;;;;10487825;28;20460;-72
2021/06/01 06:39:11;;;;;;;;;;;14.60;94.00;;;;;;10487406;28;20420;-73
2021/06/01 06:44:13;;;;;;;;;;;14.80;93.20;;;;;;10487714;28;19946;-74
2021/06/01 06:49:15;;;;;;;;;;;15.10;91.70;;;;;;10490931;28;19932;-73
2021/06/01 06:54:17;;;;;;;;;;;15.30;92.30;;;;;;10493176;28;19968;-73
2021/06/01 06:59:18;;;;;;;;;;;15.60;91.10;;;;;;10488346;28;20008;-72
2021/06/01 07:04:20;;;;;;;;;;;15.80;88.20;;;;;;10483088;28;19984;-72
2021/06/01 07:09:23;;;;;;;;;;;16.00;87.80;;;;;;10482558;28;20365;-74
2021/06/01 07:14:32;;;;;;;;;;;16.40;83.60;;;;;;10484244;28;20331;-73
2021/06/01 07:19:34;;;;;;;;;;;17.00;80.00;;;;;;10490921;28;19924;-74
2021/06/01 07:24:36;;;;;;;;;;;18.90;74.80;;;;;;10525798;28;19932;-73
2021/06/01 07:29:38;;;;;;;;;;;21.20;66.10;;;;;;10527795;28;20054;-75
2021/06/01 07:34:39;;;;;;;;;;;22.20;57.40;;;;;;10527397;28;19938;-73
2021/06/01 07:39:41;;;;;;;;;;;22.90;53.30;;;;;;10497722;28;19951;-73
2021/06/01 07:44:43;;;;;;;;;;;23.20;50.00;;;;;;10484601;28;20555;-73
2021/06/01 07:49:45;;;;;;;;;;;23.00;50.60;;;;;;10491882;28;19928;-73
2021/06/01 07:54:47;;;;;;;;;;;23.80;49.70;;;;;;10493136;28;19974;-73
2021/06/01 07:59:49;;;;;;;;;;;24.30;48.50;;;;;;10492565;28;19924;-72
2021/06/01 08:04:54;;;;;;;;;;;24.80;47.80;;;;;;10493583;28;19931;-73
2021/06/01 08:09:55;;;;;;;;;;;24.70;45.50;;;;;;10490913;28;19928;-72
2021/06/01 08:14:58;;;;;;;;;;;24.50;45.80;;;;;;10492519;28;20011;-72
2021/06/01 08:20:11;;;;;;;;;;;24.90;46.80;;;;;;10491621;28;20007;-73
2021/06/01 08:25:12;;;;;;;;;;;24.30;46.20;;;;;;10492706;28;19924;-73
2021/06/01 08:30:15;;;;;;;;;;;24.40;45.70;;;;;;10491159;28;19938;-72
2021/06/01 08:35:17;;;;;;;;;;;24.20;45.80;;;;;;10491610;28;20011;-73
2021/06/01 08:40:18;;;;;;;;;;;24.20;44.90;;;;;;10491861;28;20372;-72
2021/06/01 08:45:20;;;;;;;;;;;24.60;45.60;;;;;;10491563;28;20015;-73
2021/06/01 08:50:23;;;;;;;;;;;24.40;44.80;;;;;;10490877;28;20299;-72
2021/06/01 08:55:24;;;;;;;;;;;24.40;44.90;;;;;;10491913;28;19924;-72
2021/06/01 09:00:26;;;;;;;;;;;25.00;44.40;;;;;;10491866;28;20042;-72
2021/06/01 09:05:28;;;;;;;;;;;24.60;43.00;;;;;;10491311;28;20007;-73
2021/06/01 09:21:18;;;;;;;;;;;24.60;42.00;;;;;;10490519;28;19928;-73
2021/06/01 09:26:38;;;;;;;;;;;24.30;42.10;;;;;;10491213;28;20394;-72
2021/06/01 09:31:40;;;;;;;;;;;24.10;42.50;;;;;;10490941;28;19960;-72
2021/06/01 09:36:42;;;;;;;;;;;24.60;40.30;;;;;;10490576;28;19931;-72
2021/06/01 09:41:44;;;;;;;;;;;24.60;39.40;;;;;;10489615;28;19931;-72
2021/06/01 09:46:46;;;;;;;;;;;24.70;39.70;;;;;;10522396;28;19928;-73
2021/06/01 09:52:03;;;;;;;;;;;24.50;41.10;;;;;;10489904;28;19969;-72
2021/06/01 09:57:21;;;;;;;;;;;24.90;36.90;;;;;;10489733;28;20001;-72
2021/06/01 10:02:30;;;;;;;;;;;24.70;36.80;;;;;;10489021;28;19928;-72
2021/06/01 10:07:32;;;;;;;;;;;24.20;38.40;;;;;;10488914;28;20032;-72
2021/06/01 10:12:33;;;;;;;;;;;24.40;38.80;;;;;;10487705;28;20284;-72
2021/06/01 10:17:35;;;;;;;;;;;24.40;37.90;;;;;;10488311;28;19939;-72
2021/06/01 10:22:37;;;;;;;;;;;24.60;38.10;;;;;;10488745;28;20019;-72
2021/06/01 10:27:39;;;;;;;;;;;24.40;36.60;;;;;;10488099;28;20020;-72
2021/06/01 10:32:42;;;;;;;;;;;24.30;37.30;;;;;;10488148;28;20022;-72
2021/06/01 10:53:42;;;;;;;;;;;23.80;38.00;;;;;;10488099;28;19925;-71
2021/06/01 10:58:45;;;;;;;;;;;23.20;40.10;;;;;;10487445;28;19925;-72
2021/06/01 11:04:03;;;;;;;;;;;23.30;37.30;;;;;;10487068;28;19971;-72
2021/06/01 11:09:05;;;;;;;;;;;23.10;38.00;;;;;;10487710;28;20329;-71
2021/06/01 11:14:26;;;;;;;;;;;23.10;37.90;;;;;;10487504;28;19971;-72
2021/06/01 11:19:51;;;;;;;;;;;23.10;37.90;;;;;;10487481;28;19928;-71
2021/06/01 11:29:01;;;;;;;;;;;22.80;40.20;;;;;;10495949;28;19929;-72
2021/06/01 11:35:48;;;;;;;;;;;22.90;40.70;;;;;;10495563;28;19931;-71
2021/06/01 11:41:08;;;;;;;;;;;22.90;38.00;;;;;;10494686;28;20479;-71
2021/06/01 11:51:27;;;;;;;;;;;23.00;39.80;;;;;;10495050;28;19925;-71
2021/06/01 11:56:33;;;;;;;;;;;23.10;40.50;;;;;;10494578;28;19925;-71
2021/06/01 12:12:28;;;;;;;;;;;23.10;38.70;;;;;;10493839;28;20287;-71
2021/06/01 12:17:44;;;;;;;;;;;22.90;41.50;;;;;;10496919;28;20352;-63
2021/06/01 12:22:45;;;;;;;;;;;23.10;41.70;;;;;;10499953;28;19982;-61
2021/06/01 12:28:06;;;;;;;;;;;23.20;41.40;;;;;;10502668;28;19932;-62
2021/06/01 12:33:08;;;;;;;;;;;23.30;41.70;;;;;;10511836;28;20032;-63
2021/06/01 13:05:34;;;;;;;;;;;23.40;42.10;;;;;;10477469;28;19939;-62
2021/06/01 13:21:39;;;;;;;;;;;23.50;39.80;;;;;;10449393;28;19933;-61
2021/06/01 14:20:26;;;;;;;;;;;24.00;39.30;;;;;;10487237;28;19928;-62
2021/06/01 15:49:54;;;;;;;;;;;24.40;37.10;;;;;;10484266;28;20305;-62
2021/06/01 16:11:26;;;;;;;;;;;24.40;37.80;;;;;;10449790;28;20351;-62
2021/06/01 16:32:36;;;;;;;;;;;24.40;37.50;;;;;;10488997;28;19925;-62
2021/06/01 17:14:23;;;;;;;;;;;23.70;38.10;;;;;;10461854;28;20380;-62
2021/06/01 17:20:33;;;;;;;;;;;23.50;38.30;;;;;;10466178;28;19935;-62
2021/06/01 17:30:41;;;;;;;;;;;23.70;40.30;;;;;;10451547;28;19932;-62
2021/06/01 17:35:43;;;;;;;;;;;23.70;40.30;;;;;;10458748;28;20391;-62
2021/06/01 17:40:45;;;;;;;;;;;23.70;41.00;;;;;;10480438;28;20028;-62
2021/06/01 17:45:48;;;;;;;;;;;23.60;41.10;;;;;;10454251;28;20384;-62
2021/06/01 17:50:50;;;;;;;;;;;23.50;41.20;;;;;;10464796;28;19932;-62
2021/06/01 17:55:53;;;;;;;;;;;23.40;42.00;;;;;;10480894;28;19928;-62
2021/06/01 18:00:55;;;;;;;;;;;23.40;42.80;;;;;;10487331;28;20291;-62
2021/06/01 18:05:57;;;;;;;;;;;23.20;42.30;;;;;;10477343;28;19928;-62
2021/06/01 19:52:32;;;;;;;;;;;18.80;54.70;;;;;;10526548;28;19998;-64
2021/06/01 19:57:34;;;;;;;;;;;18.60;55.10;;;;;;10463353;28;20428;-64
2021/06/01 20:02:36;;;;;;;;;;;18.40;55.90;;;;;;10477342;28;20308;-64
2021/06/01 20:07:39;;;;;;;;;;;18.20;56.70;;;;;;10434568;28;19928;-64
2021/06/01 20:12:41;;;;;;;;;;;18.00;57.50;;;;;;10456139;28;19931;-64
2021/06/01 20:17:43;;;;;;;;;;;17.50;58.90;;;;;;10459630;28;19924;-64
2021/06/01 20:22:49;;;;;;;;;;;17.50;59.30;;;;;;10491278;28;20017;-64
2021/06/01 20:28:16;;;;;;;;;;;17.40;60.30;;;;;;10452422;28;19924;-64
2021/06/01 20:33:19;;;;;;;;;;;17.20;60.20;;;;;;10467690;28;19928;-64
2021/06/01 20:38:22;;;;;;;;;;;17.00;61.40;;;;;;10475043;28;19926;-64
2021/06/01 20:43:24;;;;;;;;;;;16.60;62.60;;;;;;10469065;28;19963;-64
2021/06/01 20:48:27;;;;;;;;;;;16.30;64.70;;;;;;10470077;28;20315;-64
2021/06/01 20:53:29;;;;;;;;;;;16.40;65.10;;;;;;10490117;28;19924;-64
2021/06/01 20:58:31;;;;;;;;;;;16.30;67.00;;;;;;10467498;28;19924;-64
2021/06/01 21:03:33;;;;;;;;;;;16.10;69.10;;;;;;10479713;28;19924;-64
2021/06/01 21:08:40;;;;;;;;;;;16.10;70.60;;;;;;10466831;28;19968;-64
2021/06/01 21:13:44;;;;;;;;;;;15.70;73.70;;;;;;10471420;28;19942;-67
2021/06/01 21:18:46;;;;;;;;;;;15.60;78.60;;;;;;10486198;28;20430;-66
2021/06/01 21:23:48;;;;;;;;;;;15.70;82.20;;;;;;10452358;28;19933;-66
2021/06/01 21:28:52;;;;;;;;;;;15.60;87.10;;;;;;10487994;28;20007;-67
2021/06/01 21:34:05;;;;;;;;;;;15.50;91.30;;;;;;10450067;28;19928;-66
2021/06/01 21:39:07;;;;;;;;;;;15.30;93.80;;;;;;10464302;28;19925;-66
2021/06/01 21:44:11;;;;;;;;;;;15.20;95.50;;;;;;10488678;28;19959;-66
2021/06/01 21:49:14;;;;;;;;;;;15.10;97.00;;;;;;10485359;28;20361;-66
2021/06/01 21:54:16;;;;;;;;;;;15.00;98.30;;;;;;10455062;28;19943;-65
2021/06/01 21:59:22;;;;;;;;;;;14.90;99.40;;;;;;10460320;28;20380;-66
2021/06/01 22:04:24;;;;;;;;;;;14.70;99.90;;;;;;10432513;28;20025;-66
2021/06/01 22:09:26;;;;;;;;;;;14.40;99.90;;;;;;10447645;28;20288;-66
2021/06/01 22:14:28;;;;;;;;;;;14.10;99.90;;;;;;10465568;28;19935;-66
2021/06/01 22:19:37;;;;;;;;;;;14.20;99.90;;;;;;10484145;28;19931;-66
2021/06/01 22:24:39;;;;;;;;;;;14.10;99.90;;;;;;10463021;28;19928;-66
2021/06/01 22:29:42;;;;;;;;;;;13.80;99.90;;;;;;10486403;28;20386;-66
2021/06/01 22:34:44;;;;;;;;;;;13.60;99.90;;;;;;10485705;28;19924;-66
2021/06/01 22:39:46;;;;;;;;;;;13.80;99.90;;;;;;10470107;28;19931;-66
2021/06/01 22:44:48;;;;;;;;;;;13.80;99.90;;;;;;10430593;28;19970;-66
2021/06/01 22:49:50;;;;;;;;;;;13.60;99.90;;;;;;10478643;28;19925;-66
2021/06/01 22:54:52;;;;;;;;;;;13.60;99.90;;;;;;10439995;28;19929;-66
2021/06/01 22:59:56;;;;;;;;;;;13.60;99.90;;;;;;10475559;28;19925;-66
2021/06/01 23:05:01;;;;;;;;;;;13.50;99.90;;;;;;10474933;28;19935;-66
2021/06/01 23:10:03;;;;;;;;;;;13.40;99.90;;;;;;10460512;28;20266;-66
2021/06/01 23:15:06;;;;;;;;;;;13.20;99.90;;;;;;10485854;28;20521;-66
2021/06/01 23:20:09;;;;;;;;;;;13.10;99.90;;;;;;10474872;28;19940;-65
2021/06/01 23:25:12;;;;;;;;;;;13.00;99.90;;;;;;10453601;28;19924;-66
2021/06/01 23:30:15;;;;;;;;;;;12.90;99.90;;;;;;10477241;28;20282;-66
2021/06/01 23:35:16;;;;;;;;;;;12.70;99.90;;;;;;10446216;28;20020;-66
2021/06/01 23:40:20;;;;;;;;;;;12.60;99.90;;;;;;10456852;28;19968;-66
2021/06/01 23:45:23;;;;;;;;;;;12.50;99.90;;;;;;10479853;28;20486;-66
2021/06/01 23:50:26;;;;;;;;;;;12.50;99.90;;;;;;10445725;28;19924;-66
2021/06/01 23:55:28;;;;;;;;;;;12.40;99.90;;;;;;10450057;28;20362;-66
